Time;durP1;ratioP1;P1;durP2;ratioP2;P2;SDS_P1;SDS_P2;PMS_P1;PMS_P2;Temp;Humidity;BMP_temperature;BMP_pressure;BME280_temperature;BME280_humidity;BME280_pressure;Samples;Min_cycle;Max_cycle;Signal;HPM_P1;HPM_P2
2022/09/16 00:00:15;;;;;;;4.97;1.77;;;18.60;50.50;;;;;;5032264;28;20669;-42
2022/09/16 00:02:41;;;;;;;1.67;1.20;;;18.60;51.30;;;;;;5032281;28;20193;-41
2022/09/16 00:05:07;;;;;;;2.90;1.53;;;18.60;50.40;;;;;;5032107;28;20173;-42
2022/09/16 00:07:33;;;;;;;2.85;1.38;;;18.60;50.40;;;;;;5031759;28;20564;-41
2022/09/16 00:09:59;;;;;;;2.90;1.30;;;18.60;50.40;;;;;;5032035;28;20300;-42
2022/09/16 00:12:25;;;;;;;3.03;1.48;;;18.60;50.60;;;;;;5032274;28;20185;-42
2022/09/16 00:14:52;;;;;;;1.67;1.25;;;18.60;50.60;;;;;;5032049;28;20180;-41
2022/09/16 00:17:18;;;;;;;2.67;2.00;;;18.50;50.60;;;;;;5031740;28;20673;-41
2022/09/16 00:19:44;;;;;;;4.17;2.23;;;18.50;50.70;;;;;;5032259;28;20186;-41
2022/09/16 00:22:09;;;;;;;3.87;1.70;;;18.50;50.80;;;;;;5032011;28;20461;-40
2022/09/16 00:24:35;;;;;;;1.67;1.53;;;18.50;50.80;;;;;;5031890;28;20409;-40
2022/09/16 00:27:01;;;;;;;4.67;1.33;;;18.50;50.70;;;;;;5031603;28;20209;-41
2022/09/16 00:29:27;;;;;;;1.77;1.07;;;18.40;50.70;;;;;;5031986;28;20412;-41
2022/09/16 00:31:53;;;;;;;2.80;1.80;;;18.40;50.80;;;;;;5032178;28;20213;-41
2022/09/16 00:34:18;;;;;;;1.60;1.20;;;18.40;50.70;;;;;;5031949;28;20825;-41
2022/09/16 00:36:44;;;;;;;3.50;1.30;;;18.40;50.80;;;;;;5031462;28;20577;-42
2022/09/16 00:39:10;;;;;;;4.03;1.87;;;18.40;50.80;;;;;;5031768;28;20265;-41
2022/09/16 00:41:36;;;;;;;2.13;1.93;;;18.40;50.90;;;;;;5031877;28;20216;-40
2022/09/16 00:44:26;;;;;;;2.60;1.60;;;18.30;51.10;;;;;;5031863;28;20182;-42
2022/09/16 00:46:53;;;;;;;2.00;1.40;;;18.30;51.10;;;;;;5031238;28;20279;-41
2022/09/16 00:49:29;;;;;;;3.67;1.20;;;18.30;51.20;;;;;;5031696;28;20170;-41
2022/09/16 00:52:00;;;;;;;2.75;1.35;;;18.40;51.30;;;;;;5031692;28;20200;-41
2022/09/16 00:54:28;;;;;;;1.98;1.60;;;18.40;51.30;;;;;;5031951;28;20184;-41
2022/09/16 00:56:57;;;;;;;2.15;1.65;;;18.30;51.30;;;;;;5031381;28;20197;-41
2022/09/16 00:59:33;;;;;;;3.60;2.25;;;18.30;51.40;;;;;;5031630;28;20253;-41
2022/09/16 01:02:05;;;;;;;3.95;3.40;;;18.30;51.10;;;;;;5031605;28;20566;-41
2022/09/16 01:04:36;;;;;;;3.80;1.73;;;18.30;51.20;;;;;;5032488;28;20185;-41
2022/09/16 01:07:02;;;;;;;4.40;1.75;;;18.30;51.30;;;;;;5035007;28;20295;-41
2022/09/16 01:09:29;;;;;;;2.35;1.42;;;18.30;51.60;;;;;;5035301;28;20629;-41
2022/09/16 01:11:55;;;;;;;2.60;1.60;;;18.30;51.50;;;;;;5035514;28;20182;-41
2022/09/16 01:17:21;;;;;;;4.05;1.60;;;18.30;51.30;;;;;;5035279;28;20683;-41
2022/09/16 01:20:03;;;;;;;2.17;1.60;;;18.20;51.70;;;;;;5035180;28;20540;-41
2022/09/16 01:22:44;;;;;;;4.15;1.85;;;18.20;51.10;;;;;;5035051;28;20181;-41
2022/09/16 01:25:29;;;;;;;3.58;1.88;;;18.10;51.20;;;;;;5034959;28;20236;-41
2022/09/16 01:28:42;;;;;;;3.40;2.17;;;18.10;51.20;;;;;;5034921;28;20209;-41
2022/09/16 01:31:11;;;;;;;2.58;1.33;;;18.00;51.10;;;;;;5031043;28;20265;-41
2022/09/16 01:33:52;;;;;;;4.13;1.85;;;18.00;51.20;;;;;;5034871;28;20491;-41
2022/09/16 01:36:39;;;;;;;2.90;1.25;;;18.00;51.10;;;;;;5034462;28;20189;-41
2022/09/16 01:39:47;;;;;;;5.03;1.60;;;18.00;50.90;;;;;;5034781;28;20158;-41
2022/09/16 01:42:15;;;;;;;2.08;1.40;;;17.90;51.00;;;;;;5033644;28;20178;-41
2022/09/16 01:44:47;;;;;;;3.55;1.65;;;17.90;51.00;;;;;;5034559;28;20177;-41
2022/09/16 01:47:20;;;;;;;2.50;1.70;;;17.90;50.80;;;;;;5034218;28;20201;-41
2022/09/16 01:49:55;;;;;;;3.25;1.60;;;17.90;50.80;;;;;;5034777;28;20174;-41
2022/09/16 01:52:58;;;;;;;3.17;1.33;;;17.80;50.50;;;;;;5034865;28;20182;-41
2022/09/16 01:55:39;;;;;;;2.70;1.67;;;17.80;50.60;;;;;;5034390;28;20720;-41
2022/09/16 01:58:35;;;;;;;3.00;1.50;;;17.80;50.70;;;;;;5034522;28;20363;-41
2022/09/16 02:01:10;;;;;;;7.47;2.35;;;17.80;50.50;;;;;;5034421;28;20170;-41
2022/09/16 02:03:39;;;;;;;2.00;1.65;;;17.80;50.50;;;;;;5034368;28;20219;-41
2022/09/16 02:06:09;;;;;;;2.92;1.55;;;17.70;50.60;;;;;;5033922;28;20266;-41
2022/09/16 02:08:49;;;;;;;4.35;1.35;;;17.80;50.20;;;;;;5034119;28;20712;-41
2022/09/16 02:11:17;;;;;;;2.35;1.40;;;17.80;50.40;;;;;;5034496;28;20158;-41
2022/09/16 02:14:13;;;;;;;5.82;1.45;;;17.80;50.60;;;;;;5034127;28;20186;-41
2022/09/16 02:16:46;;;;;;;6.15;1.27;;;17.80;50.70;;;;;;5030509;28;20206;-41
2022/09/16 02:19:17;;;;;;;2.15;1.50;;;17.90;50.80;;;;;;5033987;28;20205;-41
2022/09/16 02:21:46;;;;;;;2.83;1.52;;;17.90;50.80;;;;;;5034021;28;20150;-41
2022/09/16 02:24:16;;;;;;;2.17;1.42;;;17.90;50.80;;;;;;5033970;28;20193;-41
2022/09/16 02:26:52;;;;;;;3.20;1.60;;;17.90;50.90;;;;;;5033746;28;20213;-41
2022/09/16 02:29:24;;;;;;;4.05;1.38;;;17.90;50.80;;;;;;5033863;28;20249;-41
2022/09/16 02:31:56;;;;;;;1.95;1.30;;;17.90;51.00;;;;;;5033806;28;20150;-41
2022/09/16 02:34:33;;;;;;;3.50;1.25;;;18.00;50.80;;;;;;5034053;28;20166;-42
2022/09/16 02:37:08;;;;;;;3.20;1.33;;;18.00;50.80;;;;;;5033461;28;20209;-41
2022/09/16 02:39:39;;;;;;;3.60;1.20;;;18.00;50.80;;;;;;5033626;28;20177;-41
2022/09/16 02:42:06;;;;;;;3.15;1.63;;;18.00;50.80;;;;;;5033748;28;20165;-41
2022/09/16 02:44:33;;;;;;;1.60;1.20;;;18.00;50.70;;;;;;5033591;28;20174;-41
2022/09/16 02:47:36;;;;;;;4.05;1.48;;;18.00;50.80;;;;;;5033130;28;20207;-41
2022/09/16 02:50:34;;;;;;;5.78;2.20;;;18.00;50.70;;;;;;5033456;28;20760;-40
2022/09/16 02:53:06;;;;;;;2.47;1.40;;;18.00;50.90;;;;;;5031239;28;20218;-41
2022/09/16 02:55:32;;;;;;;4.13;1.60;;;18.00;51.10;;;;;;5033221;28;20829;-41
2022/09/16 02:57:57;;;;;;;3.70;3.13;;;18.00;51.10;;;;;;5033103;28;20222;-41
2022/09/16 03:00:24;;;;;;;1.83;1.23;;;18.00;51.10;;;;;;5033253;28;20192;-41
2022/09/16 03:02:52;;;;;;;2.90;1.42;;;18.00;51.00;;;;;;5033133;28;20404;-41
2022/09/16 03:05:18;;;;;;;2.25;1.20;;;18.00;51.00;;;;;;5033294;28;20186;-41
2022/09/16 03:07:44;;;;;;;1.93;1.20;;;18.00;51.20;;;;;;5032813;28;20572;-41
2022/09/16 03:10:13;;;;;;;2.57;1.50;;;18.00;51.20;;;;;;5033178;28;20174;-42
2022/09/16 03:13:04;;;;;;;2.95;1.33;;;18.10;51.30;;;;;;5032974;28;20431;-41
2022/09/16 03:15:55;;;;;;;1.90;1.20;;;18.10;51.30;;;;;;5032869;28;20627;-41
2022/09/16 03:18:37;;;;;;;9.32;1.50;;;18.10;51.40;;;;;;5032949;28;20193;-42
2022/09/16 03:21:38;;;;;;;4.80;1.55;;;18.10;51.40;;;;;;5031543;28;20174;-41
2022/09/16 03:24:45;;;;;;;4.10;1.20;;;18.00;51.10;;;;;;5032992;28;20184;-41
2022/09/16 03:27:23;;;;;;;2.97;1.65;;;18.00;51.30;;;;;;5032133;28;20254;-41
2022/09/16 03:29:59;;;;;;;5.63;1.50;;;18.00;51.50;;;;;;5032714;28;20154;-40
2022/09/16 03:32:31;;;;;;;2.30;1.77;;;18.00;51.40;;;;;;5032666;28;20162;-41
2022/09/16 03:35:07;;;;;;;5.00;1.92;;;18.00;51.50;;;;;;5032643;28;20151;-41
2022/09/16 03:37:36;;;;;;;5.75;3.05;;;18.00;51.50;;;;;;5032223;28;20209;-41
2022/09/16 03:40:08;;;;;;;2.95;1.30;;;18.00;51.50;;;;;;5032500;28;20178;-41
2022/09/16 03:42:37;;;;;;;7.28;2.05;;;18.00;51.40;;;;;;5032480;28;20177;-41
2022/09/16 03:45:03;;;;;;;3.17;1.45;;;18.00;51.50;;;;;;5032496;28;20673;-41
2022/09/16 03:47:28;;;;;;;3.57;2.10;;;18.00;51.40;;;;;;5032238;28;20206;-41
2022/09/16 03:49:54;;;;;;;3.93;2.10;;;18.00;51.50;;;;;;5032406;28;20413;-41
2022/09/16 03:52:20;;;;;;;6.77;2.73;;;18.00;51.50;;;;;;5032610;28;20185;-41
2022/09/16 03:54:46;;;;;;;5.90;2.03;;;18.00;51.50;;;;;;5032227;28;20708;-41
2022/09/16 03:57:11;;;;;;;3.97;1.77;;;18.00;51.40;;;;;;5031912;28;20205;-41
2022/09/16 03:59:37;;;;;;;2.57;1.70;;;18.00;51.40;;;;;;5032276;28;20523;-41
2022/09/16 04:02:03;;;;;;;3.63;2.50;;;18.00;51.40;;;;;;5032300;28;20173;-41
2022/09/16 04:04:28;;;;;;;2.90;1.93;;;18.10;51.20;;;;;;5032202;28;20677;-40
2022/09/16 04:06:55;;;;;;;4.90;2.77;;;18.00;51.00;;;;;;5032019;28;20731;-41
2022/09/16 04:09:21;;;;;;;5.07;2.95;;;18.00;50.40;;;;;;5030938;28;20508;-41
2022/09/16 04:11:47;;;;;;;2.63;2.07;;;18.00;50.60;;;;;;5031994;28;20194;-41
2022/09/16 04:14:13;;;;;;;7.27;2.67;;;17.90;50.70;;;;;;5032058;28;20401;-41
2022/09/16 04:16:39;;;;;;;5.03;1.70;;;17.90;50.70;;;;;;5031737;28;20189;-41
2022/09/16 04:19:05;;;;;;;3.53;2.40;;;17.80;50.60;;;;;;5032267;28;20185;-41
2022/09/16 04:21:32;;;;;;;3.80;1.67;;;17.80;50.40;;;;;;5032375;28;20599;-40
2022/09/16 04:23:57;;;;;;;4.40;1.25;;;17.80;50.50;;;;;;5031833;28;20541;-41
2022/09/16 04:26:23;;;;;;;3.30;2.00;;;17.80;50.20;;;;;;5031524;28;20182;-41
2022/09/16 04:28:53;;;;;;;3.30;1.80;;;17.80;50.50;;;;;;5031952;28;20162;-40
2022/09/16 04:31:19;;;;;;;6.15;1.90;;;17.80;50.40;;;;;;5032020;28;20245;-40
2022/09/16 04:33:45;;;;;;;3.67;2.38;;;17.80;50.40;;;;;;5032171;28;20301;-41
2022/09/16 04:36:13;;;;;;;7.77;2.17;;;17.80;50.70;;;;;;5031434;28;20657;-41
2022/09/16 04:38:44;;;;;;;2.72;1.90;;;17.80;50.60;;;;;;5032498;28;20169;-41
2022/09/16 04:41:21;;;;;;;3.20;1.67;;;17.90;50.70;;;;;;5035886;28;20569;-41
2022/09/16 04:43:55;;;;;;;3.17;2.33;;;17.90;50.60;;;;;;5036062;28;20189;-41
2022/09/16 04:46:22;;;;;;;4.00;1.80;;;17.90;50.60;;;;;;5035575;28;20680;-41
2022/09/16 04:48:50;;;;;;;2.22;1.40;;;17.80;49.90;;;;;;5035619;28;20197;-41
2022/09/16 04:51:16;;;;;;;3.15;1.63;;;17.80;49.70;;;;;;5035499;28;20541;-41
2022/09/16 04:53:42;;;;;;;4.30;1.75;;;17.80;49.90;;;;;;5035945;28;20174;-41
2022/09/16 04:56:17;;;;;;;1.83;1.38;;;17.80;49.40;;;;;;5035418;28;20235;-41
2022/09/16 04:58:44;;;;;;;6.55;3.28;;;17.80;49.50;;;;;;5035737;28;20181;-41
2022/09/16 05:01:12;;;;;;;2.58;2.08;;;17.80;49.70;;;;;;5035434;28;20204;-41
2022/09/16 05:03:42;;;;;;;5.35;2.00;;;17.80;49.60;;;;;;5035586;28;20205;-41
2022/09/16 05:06:11;;;;;;;4.38;2.28;;;17.80;49.40;;;;;;5035531;28;20174;-41
2022/09/16 05:08:37;;;;;;;4.13;1.60;;;17.80;49.30;;;;;;5035190;28;20292;-41
2022/09/16 05:11:05;;;;;;;3.22;1.73;;;17.80;49.60;;;;;;5035500;28;20209;-41
2022/09/16 05:13:31;;;;;;;5.55;2.20;;;17.80;49.70;;;;;;5035257;28;20196;-40
2022/09/16 05:16:04;;;;;;;4.40;2.13;;;17.80;49.60;;;;;;5035067;28;20206;-41
2022/09/16 05:18:30;;;;;;;3.58;1.77;;;17.70;49.60;;;;;;5035232;28;20416;-40
2022/09/16 05:21:00;;;;;;;3.20;1.63;;;17.70;49.40;;;;;;5035269;28;20181;-41
2022/09/16 05:23:26;;;;;;;4.40;1.58;;;17.80;49.30;;;;;;5034987;28;20411;-41
2022/09/16 05:25:52;;;;;;;2.40;1.67;;;17.80;49.30;;;;;;5034912;28;20182;-41
2022/09/16 05:28:18;;;;;;;4.43;1.80;;;17.70;48.40;;;;;;5034854;28;20460;-41
2022/09/16 05:30:44;;;;;;;5.00;2.00;;;17.70;48.50;;;;;;5034916;28;20195;-40
2022/09/16 05:33:10;;;;;;;3.67;1.87;;;17.70;48.90;;;;;;5034930;28;20400;-41
2022/09/16 05:35:36;;;;;;;3.67;1.40;;;17.70;48.80;;;;;;5034640;28;20166;-41
2022/09/16 05:38:01;;;;;;;2.07;1.87;;;17.70;48.80;;;;;;5034629;28;20209;-41
2022/09/16 05:40:27;;;;;;;2.83;1.77;;;17.70;48.70;;;;;;5034931;28;20178;-40
2022/09/16 05:42:54;;;;;;;2.00;1.65;;;17.70;49.00;;;;;;5034758;28;20264;-40
2022/09/16 05:45:20;;;;;;;4.63;1.65;;;17.80;49.10;;;;;;5035090;28;20188;-41
2022/09/16 05:47:49;;;;;;;3.85;1.67;;;17.80;48.90;;;;;;5034546;28;20233;-41
2022/09/16 05:50:15;;;;;;;1.92;1.50;;;17.80;49.10;;;;;;5034201;28;20556;-41
2022/09/16 05:52:41;;;;;;;2.00;1.50;;;17.80;49.10;;;;;;5034492;28;20166;-41
2022/09/16 05:55:07;;;;;;;3.20;1.73;;;17.80;49.30;;;;;;5034501;28;20185;-41
2022/09/16 05:57:33;;;;;;;5.90;2.00;;;17.90;49.20;;;;;;5034150;28;20221;-40
2022/09/16 05:59:59;;;;;;;3.95;1.98;;;17.90;49.40;;;;;;5034292;28;20174;-41
2022/09/16 06:02:25;;;;;;;4.30;2.10;;;17.90;49.20;;;;;;5034365;28;20224;-43
2022/09/16 06:04:52;;;;;;;6.37;1.60;;;18.00;49.10;;;;;;5034358;28;20534;-41
2022/09/16 06:07:18;;;;;;;3.15;1.85;;;17.90;49.00;;;;;;5033855;28;20205;-41
2022/09/16 06:09:43;;;;;;;4.00;1.53;;;18.00;48.90;;;;;;5034266;28;20173;-40
2022/09/16 06:12:09;;;;;;;2.97;1.67;;;18.00;49.20;;;;;;5034177;28;20427;-41
2022/09/16 06:14:35;;;;;;;2.28;1.63;;;18.10;48.90;;;;;;5034081;28;20458;-41
2022/09/16 06:17:01;;;;;;;8.70;2.40;;;18.10;48.60;;;;;;5033926;28;20290;-40
2022/09/16 06:19:27;;;;;;;3.15;2.00;;;18.00;48.20;;;;;;5034183;28;20417;-41
2022/09/16 06:21:53;;;;;;;1.87;1.50;;;18.10;48.60;;;;;;5034073;28;20178;-41
2022/09/16 06:24:20;;;;;;;4.87;1.90;;;18.20;48.90;;;;;;5032651;28;20964;-41
2022/09/16 06:26:48;;;;;;;7.57;1.88;;;18.20;48.20;;;;;;5033548;28;20511;-41
2022/09/16 06:29:15;;;;;;;3.45;1.95;;;18.20;48.30;;;;;;5034036;28;20188;-40
2022/09/16 06:31:41;;;;;;;3.50;2.60;;;18.20;47.00;;;;;;5033888;28;20184;-41
2022/09/16 06:34:13;;;;;;;4.65;2.75;;;18.20;47.70;;;;;;5033831;28;20272;-40
2022/09/16 06:36:38;;;;;;;3.13;2.38;;;18.30;47.70;;;;;;5033338;28;20201;-41
2022/09/16 06:39:05;;;;;;;6.93;3.10;;;18.30;47.80;;;;;;5033651;28;20224;-41
2022/09/16 06:41:33;;;;;;;2.72;1.88;;;18.40;47.30;;;;;;5033596;28;20192;-40
2022/09/16 06:43:59;;;;;;;5.25;2.80;;;18.40;47.30;;;;;;5033584;28;20668;-40
2022/09/16 06:46:26;;;;;;;6.43;2.60;;;18.30;47.30;;;;;;5033323;28;20186;-41
2022/09/16 06:48:55;;;;;;;5.78;2.30;;;18.30;46.90;;;;;;5033372;28;20206;-41
2022/09/16 06:51:28;;;;;;;5.80;2.35;;;18.40;47.20;;;;;;5033313;28;20174;-41
2022/09/16 06:54:00;;;;;;;3.90;1.95;;;18.40;47.50;;;;;;5033367;28;20165;-41
2022/09/16 06:56:26;;;;;;;2.40;1.73;;;18.40;46.60;;;;;;5033085;28;20286;-41
2022/09/16 06:58:54;;;;;;;1.63;1.23;;;18.30;46.70;;;;;;5033360;28;20201;-41
2022/09/16 07:01:28;;;;;;;4.65;2.53;;;18.30;46.50;;;;;;5032870;28;20424;-40
2022/09/16 07:03:55;;;;;;;3.05;2.05;;;18.30;46.70;;;;;;5033432;28;20170;-41
2022/09/16 07:06:23;;;;;;;2.67;1.50;;;18.30;47.00;;;;;;5032821;28;20204;-42
2022/09/16 07:08:48;;;;;;;10.15;1.80;;;18.30;47.00;;;;;;5033127;28;20280;-41
2022/09/16 07:11:19;;;;;;;2.77;2.53;;;18.30;46.70;;;;;;5033344;28;20634;-40
2022/09/16 07:13:46;;;;;;;2.65;1.90;;;18.40;46.70;;;;;;5033016;28;20292;-41
2022/09/16 07:16:15;;;;;;;6.00;2.15;;;18.40;47.20;;;;;;5032630;28;20173;-40
2022/09/16 07:18:41;;;;;;;2.72;1.83;;;18.40;46.10;;;;;;5032811;28;20170;-41
2022/09/16 07:21:19;;;;;;;2.40;1.75;;;18.40;46.10;;;;;;5032772;28;20602;-41
2022/09/16 07:23:46;;;;;;;5.55;2.22;;;18.50;46.50;;;;;;5032848;28;20208;-40
2022/09/16 07:26:13;;;;;;;4.45;2.33;;;18.60;46.50;;;;;;5032633;28;20182;-40
2022/09/16 07:28:40;;;;;;;3.55;1.75;;;18.60;46.20;;;;;;5031431;28;20709;-40
2022/09/16 07:31:11;;;;;;;1.50;1.30;;;18.70;46.10;;;;;;5032714;28;20253;-41
2022/09/16 07:33:39;;;;;;;3.47;1.75;;;18.70;45.90;;;;;;5032619;28;20530;-41
2022/09/16 07:36:06;;;;;;;2.55;1.70;;;18.80;45.80;;;;;;5032160;28;20170;-41
2022/09/16 07:38:32;;;;;;;3.60;1.75;;;18.70;44.60;;;;;;5032532;28;20713;-40
2022/09/16 07:41:06;;;;;;;7.15;1.80;;;18.70;44.60;;;;;;5032579;28;20174;-41
2022/09/16 07:43:32;;;;;;;2.47;1.85;;;18.60;44.50;;;;;;5032506;28;20177;-41
2022/09/16 07:45:58;;;;;;;5.30;1.87;;;18.60;45.40;;;;;;5032705;28;20707;-40
2022/09/16 07:48:25;;;;;;;4.25;2.05;;;18.70;46.30;;;;;;5032622;28;20197;-41
2022/09/16 07:50:59;;;;;;;4.05;1.73;;;18.70;46.00;;;;;;5032753;28;20249;-41
2022/09/16 07:53:28;;;;;;;5.72;2.35;;;18.90;46.10;;;;;;5032462;28;20248;-40
2022/09/16 07:56:03;;;;;;;5.07;1.83;;;18.80;45.20;;;;;;5032089;28;20162;-42
2022/09/16 07:58:29;;;;;;;4.38;2.60;;;18.90;45.50;;;;;;5032808;28;20169;-41
2022/09/16 08:00:54;;;;;;;3.17;1.40;;;19.00;45.40;;;;;;5032497;28;20184;-41
2022/09/16 08:03:20;;;;;;;2.13;1.43;;;19.00;44.90;;;;;;5032171;28;20850;-41
2022/09/16 08:05:46;;;;;;;2.90;1.47;;;19.00;45.10;;;;;;5032004;28;20166;-41
2022/09/16 08:08:12;;;;;;;3.80;1.93;;;19.00;45.30;;;;;;5032288;28;20206;-41
2022/09/16 08:10:37;;;;;;;2.30;1.70;;;19.00;44.40;;;;;;5032106;28;20215;-41
2022/09/16 08:13:05;;;;;;;2.57;1.37;;;19.00;44.30;;;;;;5032216;28;20197;-41
2022/09/16 08:15:31;;;;;;;2.60;1.63;;;19.10;45.80;;;;;;5032032;28;20648;-42
2022/09/16 08:17:57;;;;;;;3.28;1.98;;;19.10;44.20;;;;;;5031966;28;20205;-41
2022/09/16 08:20:24;;;;;;;3.33;1.60;;;19.10;45.10;;;;;;5031957;28;20170;-41
2022/09/16 08:22:50;;;;;;;9.63;1.88;;;19.10;44.90;;;;;;5032023;28;20193;-41
2022/09/16 08:25:16;;;;;;;6.75;1.90;;;19.00;42.40;;;;;;5032247;28;20670;-41
2022/09/16 08:27:41;;;;;;;2.00;1.20;;;19.00;43.10;;;;;;5031671;28;20217;-41
2022/09/16 08:30:08;;;;;;;3.20;1.43;;;19.00;43.10;;;;;;5031945;28;20757;-42
2022/09/16 08:32:34;;;;;;;5.20;1.73;;;19.00;43.00;;;;;;5031921;28;20174;-42
2022/09/16 08:35:00;;;;;;;2.03;1.20;;;19.00;42.40;;;;;;5031858;28;20216;-41
2022/09/16 08:37:26;;;;;;;9.70;1.50;;;19.00;43.50;;;;;;5031516;28;20240;-42
2022/09/16 08:39:51;;;;;;;3.13;1.20;;;19.20;44.30;;;;;;5031954;28;20488;-41
2022/09/16 08:42:49;;;;;;;2.87;1.60;;;19.20;43.00;;;;;;5031741;28;20405;-40
2022/09/16 08:45:19;;;;;;;2.35;1.70;;;19.30;42.90;;;;;;4995043;28;20210;-41
2022/09/16 08:48:13;;;;;;;2.85;1.42;;;19.20;42.40;;;;;;5031464;28;20244;-42
2022/09/16 08:50:42;;;;;;;2.50;0.90;;;19.20;42.30;;;;;;5031625;28;20162;-41
2022/09/16 08:53:34;;;;;;;2.95;1.25;;;19.30;44.10;;;;;;5031970;28;20546;-41
2022/09/16 08:56:04;;;;;;;2.90;1.58;;;19.40;43.20;;;;;;5031465;28;20170;-41
2022/09/16 08:58:43;;;;;;;5.28;1.55;;;19.30;44.10;;;;;;5031673;28;20177;-42
2022/09/16 09:01:23;;;;;;;2.00;0.98;;;19.30;41.60;;;;;;5031630;28;20265;-41
2022/09/16 09:03:49;;;;;;;2.72;1.23;;;19.30;42.60;;;;;;5031704;28;20158;-41
2022/09/16 09:06:26;;;;;;;3.77;1.57;;;19.20;42.30;;;;;;5031965;28;20193;-41
2022/09/16 09:09:26;;;;;;;4.28;1.30;;;19.30;42.20;;;;;;5031794;28;20277;-42
2022/09/16 09:12:34;;;;;;;2.25;1.30;;;19.30;42.30;;;;;;5031842;28;20176;-41
2022/09/16 09:15:11;;;;;;;1.45;0.80;;;19.30;41.50;;;;;;5011966;28;20204;-42
2022/09/16 09:17:53;;;;;;;3.20;0.80;;;19.30;42.70;;;;;;5031285;28;20558;-41
2022/09/16 09:20:54;;;;;;;2.65;1.20;;;19.20;41.40;;;;;;5031675;28;20190;-42
2022/09/16 09:23:38;;;;;;;1.75;1.10;;;19.10;41.90;;;;;;5031741;28;20166;-41
2022/09/16 09:26:26;;;;;;;2.03;0.77;;;19.20;42.10;;;;;;5033585;28;20166;-42
2022/09/16 09:29:03;;;;;;;1.85;0.90;;;19.20;43.00;;;;;;5034469;28;20218;-42
2022/09/16 09:31:50;;;;;;;7.57;1.70;;;19.20;42.80;;;;;;5034965;28;20173;-42
2022/09/16 09:34:51;;;;;;;5.30;1.67;;;19.20;41.90;;;;;;5034897;28;20182;-42
2022/09/16 09:37:41;;;;;;;3.90;1.23;;;19.20;42.20;;;;;;5034441;28;20216;-42
2022/09/16 09:40:12;;;;;;;4.50;1.25;;;19.20;42.40;;;;;;5034818;28;20174;-42
2022/09/16 09:43:27;;;;;;;1.70;1.60;;;19.20;42.70;;;;;;5034729;28;20170;-41
2022/09/16 09:46:22;;;;;;;2.28;1.23;;;19.30;42.30;;;;;;5031249;28;20205;-41
2022/09/16 09:49:03;;;;;;;3.35;1.73;;;19.30;42.90;;;;;;5034603;28;20210;-41
2022/09/16 09:51:50;;;;;;;2.85;0.80;;;19.40;42.40;;;;;;5034620;28;20178;-41
2022/09/16 09:54:35;;;;;;;5.53;1.65;;;19.40;41.70;;;;;;5034764;28;20170;-41
2022/09/16 09:57:45;;;;;;;4.82;1.38;;;19.50;41.80;;;;;;5034223;28;20779;-42
2022/09/16 10:00:16;;;;;;;3.25;1.42;;;19.50;41.10;;;;;;4992727;28;20215;-42
2022/09/16 10:02:45;;;;;;;2.25;0.93;;;19.50;41.10;;;;;;4992694;28;20217;-42
2022/09/16 10:05:27;;;;;;;3.28;1.65;;;19.50;41.50;;;;;;4992689;28;20176;-42
2022/09/16 10:07:57;;;;;;;2.03;0.80;;;19.60;41.00;;;;;;4975961;28;20310;-42
2022/09/16 10:10:25;;;;;;;2.85;1.00;;;19.70;40.90;;;;;;4992942;28;20218;-42
2022/09/16 10:12:51;;;;;;;2.13;1.23;;;19.70;41.10;;;;;;4992524;28;20207;-42
2022/09/16 10:15:27;;;;;;;1.40;0.90;;;19.70;39.20;;;;;;4992400;28;20213;-41
2022/09/16 10:17:54;;;;;;;2.38;0.95;;;19.60;39.60;;;;;;4992186;28;20199;-41
2022/09/16 10:20:27;;;;;;;2.88;1.40;;;19.60;41.00;;;;;;4992317;28;20258;-42
2022/09/16 10:23:12;;;;;;;2.90;1.13;;;19.60;42.50;;;;;;4992384;28;20687;-42
2022/09/16 10:25:38;;;;;;;1.90;1.00;;;19.70;43.80;;;;;;4975719;28;20624;-42
2022/09/16 10:28:26;;;;;;;2.97;1.20;;;19.60;43.30;;;;;;4992132;28;20258;-41
2022/09/16 10:30:55;;;;;;;1.90;1.00;;;19.60;43.90;;;;;;4991891;28;20610;-42
2022/09/16 10:33:27;;;;;;;3.22;1.60;;;19.60;44.50;;;;;;5001350;28;20190;-41
2022/09/16 10:36:05;;;;;;;1.42;0.95;;;19.60;44.50;;;;;;5033155;28;20491;-41
2022/09/16 10:38:50;;;;;;;2.22;1.40;;;19.50;44.60;;;;;;5033285;28;20166;-41
2022/09/16 10:41:26;;;;;;;3.70;1.35;;;19.40;44.70;;;;;;5033611;28;20201;-41
2022/09/16 10:43:53;;;;;;;1.83;1.30;;;19.30;44.20;;;;;;5033699;28;20744;-41
2022/09/16 10:46:19;;;;;;;6.88;1.45;;;19.20;44.20;;;;;;5033292;28;20209;-41
2022/09/16 10:48:48;;;;;;;2.05;1.13;;;19.20;44.50;;;;;;5033383;28;20213;-41
2022/09/16 10:51:27;;;;;;;3.90;1.70;;;19.10;45.20;;;;;;5033427;28;20162;-41
2022/09/16 10:53:58;;;;;;;2.38;1.50;;;19.20;44.50;;;;;;5033448;28;20166;-41
2022/09/16 10:56:31;;;;;;;1.73;1.35;;;19.20;45.10;;;;;;5033160;28;20189;-41
2022/09/16 10:59:11;;;;;;;3.75;1.50;;;19.20;45.00;;;;;;5033296;28;20233;-41
2022/09/16 11:01:59;;;;;;;3.65;1.55;;;19.30;45.40;;;;;;5033355;28;20287;-40
2022/09/16 11:04:30;;;;;;;2.10;1.60;;;19.40;44.50;;;;;;5033338;28;20250;-41
2022/09/16 11:07:08;;;;;;;2.33;1.30;;;19.50;45.00;;;;;;5032941;28;20543;-42
2022/09/16 11:09:52;;;;;;;6.85;1.13;;;19.70;44.30;;;;;;5033061;28;20570;-41
2022/09/16 11:12:33;;;;;;;2.22;1.30;;;19.90;44.20;;;;;;5033118;28;20202;-42
2022/09/16 11:15:37;;;;;;;3.08;1.40;;;19.90;42.40;;;;;;5033076;28;20158;-42
2022/09/16 11:18:24;;;;;;;5.63;1.10;;;19.80;42.10;;;;;;5011827;28;20229;-41
2022/09/16 11:21:26;;;;;;;1.55;1.10;;;19.80;42.20;;;;;;5032865;28;20158;-42
2022/09/16 11:24:10;;;;;;;2.70;1.50;;;19.80;42.00;;;;;;5032833;28;20585;-42
2022/09/16 11:26:42;;;;;;;3.35;1.20;;;19.70;39.60;;;;;;5032598;28;20273;-41
2022/09/16 11:29:31;;;;;;;2.45;1.50;;;19.30;41.60;;;;;;5032643;28;20174;-42
2022/09/16 11:32:08;;;;;;;2.20;1.00;;;19.20;43.40;;;;;;5033328;28;20166;-41
2022/09/16 11:35:16;;;;;;;1.80;1.55;;;19.30;45.20;;;;;;5032695;28;20150;-42
2022/09/16 11:37:47;;;;;;;4.22;1.40;;;19.30;44.90;;;;;;5024112;28;20355;-42
2022/09/16 11:40:32;;;;;;;2.35;1.38;;;19.40;45.00;;;;;;5032540;28;20537;-42
2022/09/16 11:43:04;;;;;;;1.80;1.02;;;19.50;45.30;;;;;;5032485;28;20545;-43
2022/09/16 11:45:51;;;;;;;3.05;2.58;;;19.50;44.40;;;;;;5032323;28;20192;-44
2022/09/16 11:48:29;;;;;;;1.88;1.58;;;19.50;44.50;;;;;;5032071;28;20636;-43
2022/09/16 11:51:28;;;;;;;2.00;1.30;;;19.70;43.90;;;;;;5032426;28;20182;-42
2022/09/16 11:53:57;;;;;;;2.30;1.65;;;19.80;43.20;;;;;;5032546;28;20159;-42
2022/09/16 11:56:47;;;;;;;1.88;1.10;;;20.00;43.50;;;;;;5031980;28;20739;-42
2022/09/16 11:59:35;;;;;;;1.48;1.00;;;20.30;41.70;;;;;;5032318;28;20251;-43
2022/09/16 12:02:26;;;;;;;2.05;1.30;;;20.30;42.00;;;;;;5032272;28;20162;-42
2022/09/16 12:05:14;;;;;;;2.10;1.25;;;20.40;41.70;;;;;;5013388;28;20178;-42
2022/09/16 12:08:08;;;;;;;3.10;1.50;;;20.60;42.50;;;;;;5031981;28;20202;-42
2022/09/16 12:10:51;;;;;;;4.25;1.33;;;20.80;43.00;;;;;;5028345;28;20174;-42
2022/09/16 12:13:35;;;;;;;2.22;1.48;;;21.00;42.00;;;;;;5032224;28;20166;-42
2022/09/16 12:16:06;;;;;;;2.40;0.98;;;21.30;41.10;;;;;;5031886;28;20154;-42
2022/09/16 12:18:46;;;;;;;2.33;1.63;;;21.50;39.30;;;;;;5032085;28;20166;-42
2022/09/16 12:21:27;;;;;;;2.55;1.80;;;21.60;38.50;;;;;;5031983;28;20419;-43
2022/09/16 12:24:13;;;;;;;1.98;1.17;;;21.80;38.60;;;;;;5032162;28;20245;-42
2022/09/16 12:26:47;;;;;;;1.67;1.00;;;21.90;39.20;;;;;;5031872;28;20272;-42
2022/09/16 12:29:26;;;;;;;3.30;0.80;;;22.10;39.90;;;;;;5032291;28;20522;-42
2022/09/16 12:32:04;;;;;;;2.60;1.47;;;22.30;38.40;;;;;;5030709;28;20166;-43
2022/09/16 12:34:42;;;;;;;1.30;0.70;;;22.50;38.00;;;;;;5031886;28;20412;-42
2022/09/16 12:37:32;;;;;;;2.08;1.10;;;22.50;37.10;;;;;;5031831;28;20456;-42
2022/09/16 12:40:00;;;;;;;4.43;1.10;;;22.30;34.80;;;;;;5031697;28;20670;-42
2022/09/16 12:43:01;;;;;;;7.53;1.47;;;22.20;36.30;;;;;;5032099;28;20189;-43
2022/09/16 12:46:20;;;;;;;2.38;1.00;;;22.30;38.20;;;;;;5031677;28;20519;-42
2022/09/16 12:48:57;;;;;;;2.17;1.10;;;22.40;37.10;;;;;;4989931;28;20762;-42
2022/09/16 12:51:53;;;;;;;2.37;1.23;;;22.50;37.90;;;;;;5026299;28;20420;-42
2022/09/16 12:54:49;;;;;;;1.30;1.00;;;22.60;36.20;;;;;;5031684;28;20432;-42
2022/09/16 12:57:45;;;;;;;3.93;1.40;;;22.80;37.30;;;;;;5031470;28;20417;-42
2022/09/16 13:00:18;;;;;;;4.10;1.17;;;23.00;36.40;;;;;;5032838;28;20389;-43
2022/09/16 13:02:54;;;;;;;1.73;1.03;;;22.90;33.70;;;;;;5035453;28;20397;-42
2022/09/16 13:05:26;;;;;;;2.13;1.40;;;23.00;35.30;;;;;;5035382;28;20495;-41
2022/09/16 13:07:55;;;;;;;2.70;1.00;;;23.00;35.50;;;;;;5035400;28;20444;-42
2022/09/16 13:10:28;;;;;;;1.37;1.23;;;23.10;36.30;;;;;;5035283;28;20409;-43
2022/09/16 13:12:58;;;;;;;2.80;1.17;;;23.10;37.50;;;;;;5035292;28;21019;-43
2022/09/16 13:15:35;;;;;;;3.63;1.40;;;23.20;35.90;;;;;;5035639;28;20401;-43
2022/09/16 13:18:21;;;;;;;1.70;1.10;;;23.20;34.20;;;;;;5035300;28;20428;-44
2022/09/16 13:20:50;;;;;;;3.20;1.40;;;22.90;33.90;;;;;;5035483;28;20512;-43
2022/09/16 13:23:21;;;;;;;1.83;1.33;;;23.00;35.70;;;;;;5035151;28;20412;-42
2022/09/16 13:25:56;;;;;;;2.57;1.10;;;23.20;36.00;;;;;;5034765;28;20925;-44